Time;durP1;ratioP1;P1;durP2;ratioP2;P2;SDS_P1;SDS_P2;PMS_P1;PMS_P2;Temp;Humidity;BMP_temperature;BMP_pressure;BME280_temperature;BME280_humidity;BME280_pressure;Samples;Min_cycle;Max_cycle;Signal;HPM_P1;HPM_P2
2023/04/11 00:00:10;;;;;;;11.82;2.30;;;;;;;;;;5001685;28;20030;-81
2023/04/11 00:02:38;;;;;;;12.35;3.15;;;;;;;;;;4998297;28;20054;-79
2023/04/11 00:05:08;;;;;;;16.40;3.08;;;;;;;;;;4976547;28;20063;-80
2023/04/11 00:07:34;;;;;;;14.60;3.78;;;;;;;;;;4999779;28;20133;-79
2023/04/11 00:10:01;;;;;;;15.75;3.40;;;;;;;;;;4998457;28;20125;-78
2023/04/11 00:12:45;;;;;;;13.00;2.42;;;;;;;;;;5015388;28;20496;-78
2023/04/11 00:16:05;;;;;;;;;;;;;;;;;;;;;
2023/04/11 00:18:46;;;;;;;24.98;3.08;;;;;;;;;;5009878;28;20470;-78
2023/04/11 00:21:32;;;;;;;18.00;3.65;;;;;;;;;;4974483;28;20033;-79
2023/04/11 00:24:07;;;;;;;23.08;3.92;;;;;;;;;;4988719;28;20038;-79
2023/04/11 00:26:36;;;;;;;19.48;3.42;;;;;;;;;;5008744;28;20049;-78
2023/04/11 00:29:04;;;;;;;14.57;2.72;;;;;;;;;;4998330;28;20081;-78
2023/04/11 00:31:30;;;;;;;16.13;2.67;;;;;;;;;;4991152;28;20076;-77
2023/04/11 00:34:01;;;;;;;20.40;3.35;;;;;;;;;;4981459;28;20030;-77
2023/04/11 00:36:33;;;;;;;18.50;2.53;;;;;;;;;;4989626;28;20030;-77
2023/04/11 00:39:08;;;;;;;22.70;2.13;;;;;;;;;;4974297;28;20122;-78
2023/04/11 00:41:43;;;;;;;12.57;2.38;;;;;;;;;;4976413;28;20420;-77
2023/04/11 00:44:10;;;;;;;19.10;2.42;;;;;;;;;;4980451;28;21998;-81
2023/04/11 00:46:59;;;;;;;;;;;;;;;;;;;;;
2023/04/11 00:59:07;;;;;;;10.88;1.52;;;;;;;;;;4994654;28;20074;-78
2023/04/11 01:01:51;;;;;;;13.75;1.70;;;;;;;;;;4969305;28;20050;-77
2023/04/11 01:04:29;;;;;;;15.15;2.00;;;;;;;;;;4973520;28;20030;-77
2023/04/11 01:07:02;;;;;;;13.57;1.65;;;;;;;;;;4986691;28;20025;-79
2023/04/11 01:09:29;;;;;;;4.72;1.15;;;;;;;;;;4981724;28;20065;-79
2023/04/11 01:12:05;;;;;;;19.33;1.83;;;;;;;;;;4977588;28;20126;-78
2023/04/11 01:14:31;;;;;;;9.48;1.60;;;;;;;;;;4981155;28;20042;-78
2023/04/11 01:17:01;;;;;;;14.27;1.75;;;;;;;;;;4982630;28;20024;-78
2023/04/11 01:19:27;;;;;;;15.05;2.28;;;;;;;;;;4979339;28;20034;-78
2023/04/11 01:22:01;;;;;;;10.90;1.50;;;;;;;;;;4987823;28;20026;-79
2023/04/11 01:24:30;;;;;;;11.85;1.80;;;;;;;;;;4976954;28;20026;-78
2023/04/11 01:27:07;;;;;;;4.55;1.05;;;;;;;;;;4978324;28;20038;-79
2023/04/11 01:29:36;;;;;;;6.07;0.73;;;;;;;;;;4979310;28;20387;-78
2023/04/11 01:32:02;;;;;;;3.60;0.60;;;;;;;;;;4986578;28;20092;-79
2023/04/11 01:34:32;;;;;;;4.30;1.27;;;;;;;;;;4983535;28;20105;-78
2023/04/11 01:36:59;;;;;;;9.35;1.42;;;;;;;;;;4975108;28;20105;-79
2023/04/11 01:39:25;;;;;;;4.45;1.25;;;;;;;;;;4982785;28;20038;-79
2023/04/11 01:41:53;;;;;;;8.70;1.00;;;;;;;;;;4974105;28;20487;-79
2023/04/11 01:44:19;;;;;;;7.57;0.95;;;;;;;;;;4981603;28;20419;-79
2023/04/11 01:46:46;;;;;;;6.20;0.68;;;;;;;;;;4979153;28;20034;-78
2023/04/11 01:49:15;;;;;;;4.35;1.00;;;;;;;;;;4996716;28;20022;-81
2023/04/11 01:51:41;;;;;;;6.70;1.35;;;;;;;;;;4975671;28;20469;-79
2023/04/11 01:54:07;;;;;;;4.35;0.57;;;;;;;;;;4982170;28;20049;-80
2023/04/11 01:56:34;;;;;;;6.15;0.85;;;;;;;;;;4974646;28;20066;-78
2023/04/11 01:59:00;;;;;;;6.95;0.63;;;;;;;;;;4980833;28;20476;-80
2023/04/11 02:01:30;;;;;;;8.40;1.05;;;;;;;;;;4975828;28;20030;-79
2023/04/11 02:03:59;;;;;;;7.28;0.80;;;;;;;;;;4979504;28;20026;-80
2023/04/11 02:06:29;;;;;;;12.90;1.02;;;;;;;;;;4962811;28;20026;-81
2023/04/11 02:08:56;;;;;;;4.18;0.85;;;;;;;;;;4972956;28;20030;-82
2023/04/11 02:11:38;;;;;;;5.20;1.20;;;;;;;;;;4974048;28;20038;-79
2023/04/11 02:17:09;;;;;;;5.63;1.20;;;;;;;;;;4975272;28;20042;-79
2023/04/11 02:20:16;;;;;;;;;;;;;;;;;;;;;
2023/04/11 03:00:53;;;;;;;9.52;1.58;;;;;;;;;;4978060;28;20425;-77
2023/04/11 03:06:54;;;;;;;;;;;;;;;;;;;;;
2023/04/11 03:09:32;;;;;;;6.47;1.20;;;;;;;;;;4958029;28;20027;-78
2023/04/11 03:11:58;;;;;;;12.63;2.05;;;;;;;;;;4978291;28;20364;-78
2023/04/11 03:14:45;;;;;;;12.35;1.42;;;;;;;;;;4962319;28;20392;-76
2023/04/11 03:17:43;;;;;;;10.50;2.00;;;;;;;;;;4959758;28;20074;-77
2023/04/11 03:20:45;;;;;;;17.90;3.00;;;;;;;;;;4972524;28;20045;-78
2023/04/11 03:33:10;;;;;;;13.57;3.08;;;;;;;;;;4992773;28;20148;-77
2023/04/11 03:47:59;;;;;;;8.75;2.58;;;;;;;;;;4932843;29;20427;-78
2023/04/11 03:54:10;;;;;;;18.25;2.63;;;;;;;;;;4935678;28;20035;-77
2023/04/11 04:05:50;;;;;;;16.48;2.95;;;;;;;;;;4965570;28;20495;-78
2023/04/11 04:11:44;;;;;;;9.68;1.67;;;;;;;;;;4942984;28;20456;-78
2023/04/11 04:41:38;;;;;;;15.95;1.90;;;;;;;;;;4889999;29;20040;-78
2023/04/11 04:44:04;;;;;;;11.93;1.70;;;;;;;;;;4870294;29;20045;-77
2023/04/11 04:46:42;;;;;;;9.18;1.60;;;;;;;;;;4891980;29;20092;-78
2023/04/11 04:52:25;;;;;;;40.90;24.60;;;;;;;;;;4955991;28;20035;-79
2023/04/11 04:54:52;;;;;;;9.85;1.77;;;;;;;;;;4944744;29;20381;-79
2023/04/11 04:57:18;;;;;;;6.68;1.88;;;;;;;;;;4950653;28;20058;-80
2023/04/11 04:59:44;;;;;;;11.55;2.10;;;;;;;;;;4925156;29;20027;-79
2023/04/11 05:02:11;;;;;;;13.90;2.58;;;;;;;;;;4936984;29;20369;-84
2023/04/11 05:04:37;;;;;;;9.77;2.25;;;;;;;;;;4951601;28;20031;-79
2023/04/11 05:07:03;;;;;;;10.48;1.40;;;;;;;;;;4924964;28;20038;-82
2023/04/11 05:09:29;;;;;;;13.52;2.25;;;;;;;;;;4962838;28;20411;-83
2023/04/11 05:11:55;;;;;;;19.33;2.88;;;;;;;;;;4973427;28;20399;-80
2023/04/11 05:14:21;;;;;;;12.77;2.35;;;;;;;;;;4968892;28;20438;-78
2023/04/11 05:16:48;;;;;;;20.17;2.72;;;;;;;;;;4961770;28;20686;-79
2023/04/11 05:19:14;;;;;;;7.60;2.17;;;;;;;;;;4972526;28;20077;-80
2023/04/11 05:21:40;;;;;;;10.43;2.15;;;;;;;;;;4984459;28;20019;-80
2023/04/11 05:24:06;;;;;;;15.98;3.10;;;;;;;;;;4971493;28;20864;-82
2023/04/11 05:26:33;;;;;;;12.18;1.70;;;;;;;;;;4973024;28;20050;-81
2023/04/11 05:28:59;;;;;;;15.43;1.88;;;;;;;;;;4986896;28;20479;-82
2023/04/11 05:31:26;;;;;;;14.32;2.67;;;;;;;;;;4971984;28;20031;-82
2023/04/11 05:33:58;;;;;;;14.00;2.45;;;;;;;;;;4987191;28;20145;-79
2023/04/11 05:42:52;;;;;;;12.98;2.47;;;;;;;;;;4918039;29;20440;-77
2023/04/11 05:45:26;;;;;;;13.38;3.17;;;;;;;;;;4915053;29;20044;-79
2023/04/11 05:51:07;;;;;;;16.77;2.28;;;;;;;;;;4908919;29;20081;-75
2023/04/11 05:53:33;;;;;;;12.18;2.40;;;;;;;;;;4882784;29;20040;-79
2023/04/11 05:56:02;;;;;;;13.95;2.15;;;;;;;;;;4912463;29;20032;-77
2023/04/11 05:59:08;;;;;;;10.38;2.40;;;;;;;;;;4976971;28;20396;-79
2023/04/11 06:01:38;;;;;;;16.50;2.78;;;;;;;;;;4949107;28;20046;-78
2023/04/11 06:04:07;;;;;;;16.85;3.10;;;;;;;;;;4976672;28;20030;-80
2023/04/11 06:07:16;;;;;;;14.65;2.20;;;;;;;;;;4952384;28;20027;-79
2023/04/11 06:09:43;;;;;;;13.73;2.40;;;;;;;;;;4919016;29;20043;-77
2023/04/11 06:12:09;;;;;;;13.20;2.05;;;;;;;;;;4948518;28;20323;-81
2023/04/11 06:14:35;;;;;;;19.70;2.65;;;;;;;;;;4934743;29;20035;-79
2023/04/11 06:17:20;;;;;;;11.93;2.40;;;;;;;;;;4925464;28;20051;-77
2023/04/11 06:34:53;;;;;;;16.95;2.97;;;;;;;;;;4945943;28;20471;-77
2023/04/11 06:37:52;;;;;;;22.90;4.07;;;;;;;;;;4969074;28;20140;-76
2023/04/11 06:40:19;;;;;;;18.15;2.08;;;;;;;;;;4974655;28;20049;-76
2023/04/11 06:45:53;;;;;;;10.40;2.13;;;;;;;;;;4936065;28;20049;-76
2023/04/11 06:52:03;;;;;;;12.20;2.17;;;;;;;;;;4895630;29;20051;-76
2023/04/11 06:54:39;;;;;;;;;;;;;;;;;;;;;
2023/04/11 06:57:08;;;;;;;16.42;2.65;;;;;;;;;;4909277;29;20160;-76
2023/04/11 07:00:06;;;;;;;;;;;;;;;;;;;;;
2023/04/11 07:03:06;;;;;;;19.05;2.58;;;;;;;;;;4883560;29;20569;-76
2023/04/11 07:05:51;;;;;;;10.82;2.25;;;;;;;;;;4883050;29;20541;-79
2023/04/11 07:52:32;;;;;;;;;;;;;;;;;;;;;
2023/04/11 08:22:06;;;;;;;16.77;3.33;;;;;;;;;;4988578;28;20616;-76
2023/04/11 08:24:32;;;;;;;12.57;2.28;;;;;;;;;;4975577;28;20486;-77
2023/04/11 08:26:58;;;;;;;13.90;2.38;;;;;;;;;;4955419;28;20495;-78
2023/04/11 08:35:56;;;;;;;12.40;2.15;;;;;;;;;;4891499;29;20040;-76
2023/04/11 08:38:24;;;;;;;6.18;1.83;;;;;;;;;;4932467;28;20053;-77
2023/04/11 08:41:15;;;;;;;9.95;1.77;;;;;;;;;;4963368;28;20467;-77
2023/04/11 08:43:53;;;;;;;9.52;1.33;;;;;;;;;;4966586;28;20077;-77
2023/04/11 08:49:45;;;;;;;12.40;2.80;;;;;;;;;;4988473;28;20049;-77
2023/04/11 08:55:14;;;;;;;;;;;;;;;;;;4964433;28;20495;-76
2023/04/11 08:57:45;;;;;;;9.18;1.85;;;;;;;;;;4950444;28;19941;-75
2023/04/11 09:00:17;;;;;;;13.95;2.17;;;;;;;;;;4955098;28;20123;-78
2023/04/11 09:03:02;;;;;;;15.25;2.65;;;;;;;;;;4959170;28;20031;-76
2023/04/11 09:05:29;;;;;;;14.80;2.63;;;;;;;;;;4955124;28;20030;-75
2023/04/11 09:18:22;;;;;;;;;;;;;;;;;;;;;
2023/04/11 09:20:58;;;;;;;13.55;2.35;;;;;;;;;;4957326;28;20058;-77
2023/04/11 09:23:24;;;;;;;12.02;2.33;;;;;;;;;;4956962;28;20066;-76
2023/04/11 09:26:04;;;;;;;17.95;2.00;;;;;;;;;;4964635;28;20065;-78
2023/04/11 09:34:44;;;;;;;;;;;;;;;;;;4926365;29;20096;-79
2023/04/11 09:37:53;;;;;;;;;;;;;;;;;;;;;
2023/04/11 09:40:24;;;;;;;17.65;3.42;;;;;;;;;;4865253;29;20049;-77
2023/04/11 09:42:57;;;;;;;12.43;1.93;;;;;;;;;;4857455;29;20990;-77
2023/04/11 09:45:30;;;;;;;11.75;2.50;;;;;;;;;;4961250;28;20289;-79
2023/04/11 09:51:07;;;;;;;9.55;2.40;;;;;;;;;;4982125;28;20034;-79
2023/04/11 09:57:12;;;;;;;12.27;2.15;;;;;;;;;;4939367;28;20089;-80
2023/04/11 09:59:39;;;;;;;14.40;3.17;;;;;;;;;;4981507;28;20039;-77
2023/04/11 10:02:05;;;;;;;16.75;3.05;;;;;;;;;;4983334;28;20045;-79
2023/04/11 10:04:59;;;;;;;13.52;3.38;;;;;;;;;;4964164;28;20034;-79
2023/04/11 10:07:28;;;;;;;13.55;1.95;;;;;;;;;;4983692;28;20476;-79
2023/04/11 10:10:03;;;;;;;15.20;2.60;;;;;;;;;;4971120;28;20344;-82
2023/04/11 10:12:33;;;;;;;13.88;2.38;;;;;;;;;;4970399;28;20113;-79
2023/04/11 10:15:13;;;;;;;17.55;2.20;;;;;;;;;;4971838;28;20031;-78
2023/04/11 10:17:42;;;;;;;17.52;2.47;;;;;;;;;;4965007;28;20027;-78
2023/04/11 10:20:27;;;;;;;13.02;2.35;;;;;;;;;;4973821;28;20403;-78
2023/04/11 10:23:06;;;;;;;12.88;2.35;;;;;;;;;;4982450;28;20129;-79
2023/04/11 10:25:47;;;;;;;11.13;2.28;;;;;;;;;;4973579;28;20027;-78
2023/04/11 10:28:29;;;;;;;12.63;2.78;;;;;;;;;;4974329;28;20060;-80
2023/04/11 10:31:26;;;;;;;8.75;2.45;;;;;;;;;;4969055;28;20045;-77
2023/04/11 10:37:41;;;;;;;14.93;2.72;;;;;;;;;;4929037;29;20410;-77
2023/04/11 10:40:28;;;;;;;7.72;2.00;;;;;;;;;;4924408;29;20040;-76
2023/04/11 10:43:19;;;;;;;13.73;2.50;;;;;;;;;;4912636;29;20107;-77
2023/04/11 10:46:05;;;;;;;9.30;2.17;;;;;;;;;;4914910;28;20209;-77
2023/04/11 10:48:31;;;;;;;5.35;1.30;;;;;;;;;;4964341;28;20129;-76
2023/04/11 10:54:02;;;;;;;12.73;1.85;;;;;;;;;;4984683;28;20049;-76
2023/04/11 10:59:35;;;;;;;15.02;2.75;;;;;;;;;;5067907;23;20515;-76
2023/04/11 11:02:15;;;;;;;15.48;2.72;;;;;;;;;;4951659;28;20031;-77
2023/04/11 11:04:43;;;;;;;10.70;2.20;;;;;;;;;;4963643;28;20260;-77
2023/04/11 11:07:15;;;;;;;11.15;2.00;;;;;;;;;;4951766;28;20027;-75
2023/04/11 11:12:52;;;;;;;15.10;2.33;;;;;;;;;;4961058;28;20037;-75
2023/04/11 11:15:30;;;;;;;14.10;2.72;;;;;;;;;;4949310;28;20058;-78
2023/04/11 11:17:56;;;;;;;11.77;2.88;;;;;;;;;;4936124;28;20129;-75
2023/04/11 11:20:22;;;;;;;12.27;2.83;;;;;;;;;;4943272;28;20081;-75
2023/04/11 11:22:58;;;;;;;16.35;3.85;;;;;;;;;;4949639;29;20031;-75
2023/04/11 11:25:24;;;;;;;11.15;2.15;;;;;;;;;;4938364;28;20072;-75
2023/04/11 11:28:02;;;;;;;15.45;2.22;;;;;;;;;;4950420;28;20034;-75
2023/04/11 11:33:39;;;;;;;23.30;7.65;;;;;;;;;;4914215;28;20030;-78
2023/04/11 11:36:06;;;;;;;13.35;2.40;;;;;;;;;;4943181;28;20049;-79
2023/04/11 11:38:38;;;;;;;12.27;2.42;;;;;;;;;;4947078;28;20037;-80
2023/04/11 11:41:04;;;;;;;6.53;1.55;;;;;;;;;;4946031;28;20027;-82
2023/04/11 11:44:00;;;;;;;12.82;2.10;;;;;;;;;;4947398;28;20058;-78
2023/04/11 13:18:44;;;;;;;;;;;;;;;;;;;;;
2023/04/11 13:21:28;;;;;;;11.70;2.08;;;;;;;;;;4793879;29;20068;-78
2023/04/11 13:26:57;;;;;;;6.55;1.95;;;;;;;;;;4802120;29;20042;-81
2023/04/11 13:30:03;;;;;;;;;;;;;;;;;;;;;
2023/04/11 13:32:54;;;;;;;9.00;1.80;;;;;;;;;;4764927;30;20047;-77
2023/04/11 13:35:23;;;;;;;8.55;1.85;;;;;;;;;;4750166;30;20047;-77
2023/04/11 13:37:52;;;;;;;14.85;2.20;;;;;;;;;;4798307;29;20533;-77
2023/04/11 13:40:35;;;;;;;8.30;1.98;;;;;;;;;;4786829;29;20042;-79
2023/04/11 13:43:27;;;;;;;10.77;2.47;;;;;;;;;;4791009;29;20081;-78
2023/04/11 13:45:56;;;;;;;7.40;2.15;;;;;;;;;;4804746;29;20069;-78
2023/04/11 13:48:25;;;;;;;10.80;2.03;;;;;;;;;;4803922;29;20075;-78
2023/04/11 13:51:19;;;;;;;8.02;2.28;;;;;;;;;;4776611;29;20059;-78
2023/04/11 13:57:25;;;;;;;;;;;;;;;;;;;;;
2023/04/11 14:00:02;;;;;;;14.05;2.03;;;;;;;;;;4790854;29;20051;-78
2023/04/11 14:02:29;;;;;;;15.52;3.00;;;;;;;;;;4798716;29;20050;-79
2023/04/11 14:12:15;;;;;;;12.98;1.67;;;;;;;;;;4766388;30;20035;-80
2023/04/11 14:14:13;;;;;;;10.10;1.77;;;;;;;;;;4750548;30;20040;-79
2023/04/11 14:16:45;;;;;;;11.95;2.28;;;;;;;;;;4758335;30;20047;-78
2023/04/11 14:19:14;;;;;;;8.90;1.67;;;;;;;;;;4784038;29;20027;-78
2023/04/11 14:21:46;;;;;;;10.27;2.45;;;;;;;;;;4793285;29;20047;-77
2023/04/11 14:24:15;;;;;;;13.35;1.80;;;;;;;;;;4830938;29;20034;-77
2023/04/11 14:26:51;;;;;;;7.93;1.98;;;;;;;;;;4824223;29;20022;-81
2023/04/11 14:29:17;;;;;;;7.57;1.63;;;;;;;;;;4828985;29;20059;-80
2023/04/11 14:31:46;;;;;;;13.38;2.40;;;;;;;;;;4824246;29;20074;-80
2023/04/11 14:34:17;;;;;;;6.28;1.52;;;;;;;;;;4819068;29;20026;-80
2023/04/11 14:36:43;;;;;;;8.48;2.40;;;;;;;;;;4834943;29;20038;-77
2023/04/11 14:39:11;;;;;;;10.07;2.10;;;;;;;;;;4839082;29;20057;-78
2023/04/11 14:41:40;;;;;;;9.68;1.73;;;;;;;;;;4820406;29;20038;-77
2023/04/11 14:44:06;;;;;;;7.65;2.30;;;;;;;;;;4839582;29;20436;-79
2023/04/11 14:46:35;;;;;;;10.13;1.88;;;;;;;;;;4844816;29;20029;-79
2023/04/11 14:49:01;;;;;;;9.20;1.60;;;;;;;;;;4834659;29;20022;-79
2023/04/11 14:51:28;;;;;;;8.80;2.53;;;;;;;;;;4810975;29;20033;-80
2023/04/11 14:53:58;;;;;;;7.97;1.95;;;;;;;;;;4824146;29;20033;-78
2023/04/11 14:56:27;;;;;;;14.18;3.80;;;;;;;;;;4823923;29;20472;-81
2023/04/11 14:58:56;;;;;;;8.90;1.70;;;;;;;;;;4823970;29;20034;-78
2023/04/11 15:01:22;;;;;;;13.52;2.10;;;;;;;;;;4838393;29;20041;-79
2023/04/11 15:03:51;;;;;;;12.38;2.00;;;;;;;;;;4837135;29;20026;-79
2023/04/11 15:06:17;;;;;;;11.30;2.25;;;;;;;;;;4823870;29;20032;-80
2023/04/11 15:08:46;;;;;;;7.60;1.65;;;;;;;;;;4842135;29;20166;-79
2023/04/11 15:11:26;;;;;;;9.57;1.70;;;;;;;;;;4807399;29;20090;-79
2023/04/11 15:13:53;;;;;;;17.38;2.15;;;;;;;;;;4823455;29;20037;-81
2023/04/11 15:16:23;;;;;;;12.48;2.22;;;;;;;;;;4833760;29;20112;-80
2023/04/11 15:18:49;;;;;;;7.68;1.40;;;;;;;;;;4821016;29;20038;-80
2023/04/11 15:21:16;;;;;;;7.15;2.25;;;;;;;;;;4830213;29;20029;-80
2023/04/11 15:23:44;;;;;;;7.78;1.58;;;;;;;;;;4822720;29;20022;-80
2023/04/11 15:26:10;;;;;;;8.50;2.13;;;;;;;;;;4826653;29;20490;-81
2023/04/11 15:28:38;;;;;;;8.57;1.55;;;;;;;;;;4807623;29;20030;-78
2023/04/11 15:31:12;;;;;;;11.02;2.20;;;;;;;;;;4826461;29;20041;-78
2023/04/11 15:33:38;;;;;;;12.20;3.17;;;;;;;;;;4838655;29;20100;-78
2023/04/11 15:36:07;;;;;;;10.45;2.15;;;;;;;;;;4804821;29;20022;-78
2023/04/11 15:38:35;;;;;;;9.07;2.35;;;;;;;;;;4822119;29;20037;-78
2023/04/11 15:41:01;;;;;;;9.68;1.90;;;;;;;;;;4815620;29;20035;-79
2023/04/11 15:43:27;;;;;;;5.07;1.63;;;;;;;;;;4798812;29;20045;-78
2023/04/11 15:45:54;;;;;;;9.20;1.65;;;;;;;;;;4825258;29;20483;-78
2023/04/11 15:48:23;;;;;;;9.45;2.17;;;;;;;;;;4841703;29;20030;-78
2023/04/11 15:50:49;;;;;;;6.78;1.30;;;;;;;;;;4834096;29;20488;-79
2023/04/11 15:53:21;;;;;;;10.55;1.80;;;;;;;;;;4809046;29;20058;-79
2023/04/11 15:55:47;;;;;;;6.75;1.30;;;;;;;;;;4810765;29;20034;-79
2023/04/11 15:58:17;;;;;;;7.55;1.55;;;;;;;;;;4837351;29;20124;-80
2023/04/11 16:00:46;;;;;;;10.77;2.13;;;;;;;;;;4839463;29;20073;-79
2023/04/11 16:03:12;;;;;;;10.30;1.60;;;;;;;;;;4840204;29;20086;-81
2023/04/11 16:05:41;;;;;;;5.28;1.70;;;;;;;;;;4825640;29;20063;-80
2023/04/11 16:08:15;;;;;;;11.77;1.88;;;;;;;;;;4826048;29;20465;-82
2023/04/11 16:10:41;;;;;;;7.65;1.65;;;;;;;;;;4810255;29;20050;-81
2023/04/11 16:13:10;;;;;;;10.60;2.45;;;;;;;;;;4830711;29;20027;-82
2023/04/11 16:15:38;;;;;;;5.70;1.30;;;;;;;;;;4825985;29;20069;-80
2023/04/11 16:18:07;;;;;;;6.65;1.88;;;;;;;;;;4805808;29;20138;-80
2023/04/11 16:20:33;;;;;;;4.50;1.20;;;;;;;;;;4803022;29;20050;-81
2023/04/11 16:23:00;;;;;;;7.13;1.73;;;;;;;;;;4783974;29;20550;-78
2023/04/11 16:25:26;;;;;;;7.07;1.33;;;;;;;;;;4805207;29;20130;-79
2023/04/11 16:27:52;;;;;;;8.30;1.50;;;;;;;;;;4791271;29;20035;-79
2023/04/11 16:30:18;;;;;;;5.90;1.30;;;;;;;;;;4791326;29;20063;-79
2023/04/11 16:32:47;;;;;;;5.05;1.13;;;;;;;;;;4806233;29;20038;-80
2023/04/11 16:35:14;;;;;;;7.35;2.10;;;;;;;;;;4790278;29;20031;-79
2023/04/11 16:37:40;;;;;;;10.63;2.05;;;;;;;;;;4775418;29;20034;-79
2023/04/11 16:40:10;;;;;;;7.40;1.55;;;;;;;;;;4800397;29;20062;-81
2023/04/11 16:42:36;;;;;;;11.02;3.08;;;;;;;;;;4790145;29;20056;-78
2023/04/11 16:45:02;;;;;;;6.93;1.77;;;;;;;;;;4799253;29;20029;-80
2023/04/11 16:47:28;;;;;;;7.55;2.03;;;;;;;;;;4807070;29;20067;-80
2023/04/11 16:49:57;;;;;;;10.70;2.30;;;;;;;;;;4811232;29;20055;-80
2023/04/11 16:52:23;;;;;;;8.73;1.90;;;;;;;;;;4803565;29;20063;-79
2023/04/11 16:54:50;;;;;;;7.35;1.55;;;;;;;;;;4789608;29;20050;-79
2023/04/11 16:57:17;;;;;;;6.82;1.95;;;;;;;;;;4797087;29;20480;-79
2023/04/11 16:59:43;;;;;;;7.22;2.10;;;;;;;;;;4804891;29;20037;-81
2023/04/11 17:02:12;;;;;;;9.18;1.50;;;;;;;;;;4799665;29;20481;-83
2023/04/11 17:04:38;;;;;;;10.57;1.85;;;;;;;;;;4804659;29;20038;-80
2023/04/11 17:07:12;;;;;;;7.93;3.17;;;;;;;;;;4790909;29;20036;-81
2023/04/11 17:10:14;;;;;;;;;;;;;;;;;;;;;
2023/04/11 17:12:40;;;;;;;10.50;2.10;;;;;;;;;;4782692;29;20042;-80
2023/04/11 17:15:09;;;;;;;6.90;1.70;;;;;;;;;;4800395;29;20073;-80
2023/04/11 17:17:36;;;;;;;9.23;1.55;;;;;;;;;;4800606;29;20102;-81
2023/04/11 17:20:08;;;;;;;12.45;4.55;;;;;;;;;;4805692;29;20026;-76
2023/04/11 17:22:34;;;;;;;8.55;2.03;;;;;;;;;;4822770;29;20038;-76
2023/04/11 17:25:00;;;;;;;10.70;2.53;;;;;;;;;;4820677;29;20077;-77
2023/04/11 17:27:26;;;;;;;12.10;2.60;;;;;;;;;;4791868;29;20380;-71
2023/04/11 17:29:52;;;;;;;12.57;2.47;;;;;;;;;;4819157;29;20030;-78
2023/04/11 17:32:18;;;;;;;15.25;3.45;;;;;;;;;;4832321;29;20038;-79
2023/04/11 17:34:46;;;;;;;7.00;1.65;;;;;;;;;;4818100;29;20165;-78
2023/04/11 17:37:16;;;;;;;16.75;2.53;;;;;;;;;;4827815;29;20034;-79
2023/04/11 17:39:53;;;;;;;;;;;;;;;;;;;;;
2023/04/11 17:42:19;;;;;;;12.40;2.22;;;;;;;;;;4818927;29;20083;-78
2023/04/11 17:45:06;;;;;;;9.95;1.85;;;;;;;;;;4817298;29;20037;-86
2023/04/11 17:47:32;;;;;;;6.13;1.95;;;;;;;;;;4819319;29;20049;-88
2023/04/11 17:50:00;;;;;;;14.10;3.35;;;;;;;;;;4804278;29;20035;-84
2023/04/11 17:52:26;;;;;;;12.95;2.20;;;;;;;;;;4817473;29;20038;-84
2023/04/11 17:54:55;;;;;;;9.85;4.85;;;;;;;;;;4813493;29;20026;-85
2023/04/11 17:57:33;;;;;;;12.90;2.38;;;;;;;;;;4828852;29;20157;-81
2023/04/11 18:00:15;;;;;;;10.07;1.95;;;;;;;;;;4833390;29;20073;-84
2023/04/11 18:02:45;;;;;;;13.80;2.67;;;;;;;;;;4834526;29;20060;-81
2023/04/11 18:05:11;;;;;;;7.00;2.10;;;;;;;;;;4816950;29;20738;-87
2023/04/11 18:07:40;;;;;;;7.80;1.80;;;;;;;;;;4830568;29;20063;-87
2023/04/11 18:10:09;;;;;;;13.30;3.13;;;;;;;;;;4794930;29;20442;-90
2023/04/11 18:12:35;;;;;;;14.68;3.47;;;;;;;;;;4811553;29;20049;-86
2023/04/11 18:15:01;;;;;;;12.23;2.83;;;;;;;;;;4831792;29;20113;-87
2023/04/11 18:17:27;;;;;;;22.40;4.25;;;;;;;;;;4822408;29;20488;-88
2023/04/11 18:20:22;;;;;;;11.07;4.60;;;;;;;;;;4801213;29;20038;-86
2023/04/11 18:22:56;;;;;;;15.32;4.55;;;;;;;;;;4799800;29;20122;-88
2023/04/11 18:25:23;;;;;;;19.25;5.65;;;;;;;;;;4799694;29;20039;-86
2023/04/11 18:28:07;;;;;;;19.85;7.18;;;;;;;;;;4772234;29;20108;-85
2023/04/11 18:30:33;;;;;;;13.73;4.57;;;;;;;;;;4781274;29;20342;-87
2023/04/11 18:33:02;;;;;;;12.20;2.80;;;;;;;;;;4806448;29;20459;-89
2023/04/11 18:35:31;;;;;;;13.02;3.25;;;;;;;;;;4801802;29;20035;-88
2023/04/11 18:37:58;;;;;;;8.43;2.50;;;;;;;;;;4812962;29;20043;-88
2023/04/11 18:40:24;;;;;;;12.52;3.10;;;;;;;;;;4814048;29;20034;-88
2023/04/11 18:42:52;;;;;;;12.25;3.20;;;;;;;;;;4802783;29;20043;-84
2023/04/11 18:45:20;;;;;;;13.82;3.47;;;;;;;;;;4803921;29;20041;-84
2023/04/11 18:47:46;;;;;;;11.48;3.13;;;;;;;;;;4814943;29;20087;-87
2023/04/11 18:50:13;;;;;;;14.13;3.42;;;;;;;;;;4957865;24;20053;-86
2023/04/11 18:52:40;;;;;;;11.32;2.50;;;;;;;;;;4859505;29;20384;-84
2023/04/11 18:55:07;;;;;;;7.55;2.17;;;;;;;;;;4855459;29;20498;-86
2023/04/11 18:57:33;;;;;;;27.63;11.93;;;;;;;;;;4855899;29;20030;-83
2023/04/11 19:00:06;;;;;;;48.50;20.27;;;;;;;;;;4872827;29;20036;-85
2023/04/11 19:02:36;;;;;;;40.15;16.15;;;;;;;;;;4847478;29;20049;-86
2023/04/11 19:05:05;;;;;;;37.33;17.95;;;;;;;;;;4865244;29;20106;-88
2023/04/11 19:07:32;;;;;;;16.10;6.05;;;;;;;;;;4859933;29;20037;-87
2023/04/11 19:09:58;;;;;;;10.45;3.03;;;;;;;;;;4859355;29;20029;-90
2023/04/11 19:12:24;;;;;;;9.93;2.45;;;;;;;;;;4853526;29;20058;-86
2023/04/11 19:14:50;;;;;;;14.98;3.55;;;;;;;;;;4844201;29;20145;-84
2023/04/11 19:17:16;;;;;;;14.45;5.38;;;;;;;;;;4848131;29;20029;-83
2023/04/11 19:19:42;;;;;;;11.50;5.65;;;;;;;;;;4841099;29;20045;-82
2023/04/11 19:22:09;;;;;;;18.90;7.95;;;;;;;;;;4855518;29;20067;-82
2023/04/11 19:24:35;;;;;;;18.17;5.68;;;;;;;;;;4851970;29;20711;-83
2023/04/11 19:27:01;;;;;;;29.20;13.57;;;;;;;;;;4838759;29;20067;-84
2023/04/11 19:29:27;;;;;;;25.17;11.93;;;;;;;;;;4859755;29;20113;-84
2023/04/11 19:31:53;;;;;;;25.20;11.77;;;;;;;;;;4857985;29;20033;-83
2023/04/11 19:34:29;;;;;;;24.38;10.88;;;;;;;;;;4853751;29;20038;-85
2023/04/11 19:39:55;;;;;;;21.05;5.05;;;;;;;;;;4849820;29;20555;-85
2023/04/11 19:42:21;;;;;;;14.52;4.55;;;;;;;;;;4856842;29;20368;-82
2023/04/11 19:44:47;;;;;;;14.68;3.90;;;;;;;;;;4861949;29;20460;-84
2023/04/11 19:47:13;;;;;;;8.13;3.17;;;;;;;;;;4841161;29;20257;-85
2023/04/11 19:49:41;;;;;;;15.13;4.18;;;;;;;;;;4848616;29;20054;-84
2023/04/11 19:52:47;;;;;;;14.38;3.70;;;;;;;;;;4855246;29;20412;-84
2023/04/11 19:55:12;;;;;;;7.32;2.70;;;;;;;;;;4851950;29;20030;-87
2023/04/11 19:57:39;;;;;;;13.40;2.60;;;;;;;;;;4870259;29;20025;-90
2023/04/11 20:00:10;;;;;;;16.65;3.33;;;;;;;;;;4865791;29;20044;-88
2023/04/11 20:02:43;;;;;;;10.50;2.97;;;;;;;;;;4852347;29;20360;-80
2023/04/11 20:05:09;;;;;;;7.25;2.25;;;;;;;;;;4863122;29;20026;-84
2023/04/11 20:07:37;;;;;;;10.57;3.05;;;;;;;;;;4855910;29;20129;-91
2023/04/11 20:10:04;;;;;;;27.33;8.93;;;;;;;;;;4869245;29;20089;-85
2023/04/11 20:12:30;;;;;;;12.32;4.90;;;;;;;;;;4866641;29;20025;-87
2023/04/11 20:14:57;;;;;;;9.02;2.80;;;;;;;;;;4855877;29;20038;-85
2023/04/11 20:17:23;;;;;;;12.43;2.30;;;;;;;;;;4834527;29;20044;-86
2023/04/11 20:19:53;;;;;;;14.10;2.58;;;;;;;;;;4855851;29;20069;-88
2023/04/11 20:22:20;;;;;;;10.57;2.30;;;;;;;;;;4856090;29;20030;-89
2023/04/11 20:24:46;;;;;;;9.40;2.20;;;;;;;;;;4862434;29;20040;-88
2023/04/11 20:27:13;;;;;;;8.25;2.40;;;;;;;;;;4856751;29;20030;-88
2023/04/11 20:29:40;;;;;;;15.02;3.08;;;;;;;;;;4840081;29;20053;-88
2023/04/11 20:32:06;;;;;;;15.40;2.88;;;;;;;;;;4848155;29;20704;-87
2023/04/11 20:34:32;;;;;;;12.43;2.67;;;;;;;;;;4851160;29;20039;-88
2023/04/11 20:36:59;;;;;;;11.38;2.95;;;;;;;;;;4867208;29;20037;-88
2023/04/11 20:39:26;;;;;;;9.65;2.10;;;;;;;;;;4840252;29;20033;-82
2023/04/11 20:41:52;;;;;;;19.67;6.13;;;;;;;;;;4838515;29;20551;-79
2023/04/11 20:44:22;;;;;;;16.58;5.22;;;;;;;;;;4850225;29;20030;-78
2023/04/11 20:46:48;;;;;;;27.98;9.82;;;;;;;;;;4851193;29;20081;-81
2023/04/11 20:49:16;;;;;;;12.32;2.33;;;;;;;;;;4860940;29;20034;-83
2023/04/11 20:51:42;;;;;;;9.25;2.03;;;;;;;;;;4851110;29;20113;-87
2023/04/11 20:54:08;;;;;;;12.57;2.47;;;;;;;;;;4865540;29;20038;-85
2023/04/11 20:56:35;;;;;;;14.68;2.55;;;;;;;;;;4875400;29;20049;-88
2023/04/11 20:59:03;;;;;;;7.05;1.75;;;;;;;;;;4858092;29;20124;-87
2023/04/11 21:01:32;;;;;;;9.52;2.17;;;;;;;;;;4854806;29;20120;-86
2023/04/11 21:04:00;;;;;;;8.80;2.20;;;;;;;;;;4852173;29;20033;-85
2023/04/11 21:06:27;;;;;;;9.68;2.05;;;;;;;;;;4836584;29;20037;-88
2023/04/11 21:08:53;;;;;;;14.35;2.45;;;;;;;;;;4858694;29;20479;-87
2023/04/11 21:11:20;;;;;;;12.07;2.00;;;;;;;;;;4843639;29;20048;-84
2023/04/11 21:13:48;;;;;;;12.13;1.92;;;;;;;;;;4839486;29;20042;-89
2023/04/11 21:16:14;;;;;;;9.15;2.20;;;;;;;;;;4853577;29;20034;-85
2023/04/11 21:18:40;;;;;;;8.93;1.90;;;;;;;;;;4854564;29;20380;-88
2023/04/11 21:21:06;;;;;;;8.32;1.75;;;;;;;;;;4861752;29;20449;-84
2023/04/11 21:23:32;;;;;;;10.60;2.08;;;;;;;;;;4854796;29;20632;-84
2023/04/11 21:25:59;;;;;;;13.60;1.90;;;;;;;;;;4851725;29;20158;-90
2023/04/11 21:28:25;;;;;;;6.63;1.60;;;;;;;;;;4842386;29;20135;-88
2023/04/11 21:30:51;;;;;;;9.50;1.55;;;;;;;;;;4870577;29;20065;-86
2023/04/11 21:33:17;;;;;;;12.90;2.05;;;;;;;;;;4839162;29;20051;-86
2023/04/11 21:35:44;;;;;;;10.43;1.98;;;;;;;;;;4846831;29;20810;-79
2023/04/11 21:38:11;;;;;;;10.65;2.47;;;;;;;;;;4865116;29;20073;-82